Time;durP1;ratioP1;P1;durP2;ratioP2;P2;SDS_P1;SDS_P2;PMS_P1;PMS_P2;Temp;Humidity;BMP_temperature;BMP_pressure;BME280_temperature;BME280_humidity;BME280_pressure;Samples;Min_cycle;Max_cycle;Signal;HPM_P1;HPM_P2
2023/11/23 00:01:59;;;;;;;16.60;9.98;;;;;;;;;;10499241;28;20887;-82
2023/11/23 00:07:02;;;;;;;16.40;9.57;;;;;;;;;;10502102;28;20406;-81
2023/11/23 00:12:06;;;;;;;15.98;8.68;;;;;;;;;;10502030;28;20398;-80
2023/11/23 00:17:09;;;;;;;13.67;8.80;;;;;;;;;;10500426;28;20538;-81
2023/11/23 00:22:11;;;;;;;12.70;8.77;;;;;;;;;;10498719;28;20414;-82
2023/11/23 00:27:15;;;;;;;12.93;8.57;;;;;;;;;;10497436;28;20429;-81
2023/11/23 00:32:17;;;;;;;13.43;9.13;;;;;;;;;;10507574;28;20418;-82
2023/11/23 00:37:21;;;;;;;14.63;8.88;;;;;;;;;;10498371;28;20453;-82
2023/11/23 00:42:25;;;;;;;14.05;8.68;;;;;;;;;;10503257;28;21003;-81
2023/11/23 00:47:28;;;;;;;13.03;8.47;;;;;;;;;;10500614;28;20862;-82
2023/11/23 00:52:30;;;;;;;14.82;9.05;;;;;;;;;;10499890;28;20410;-81
2023/11/23 00:57:35;;;;;;;11.98;7.70;;;;;;;;;;10497354;28;20890;-82
2023/11/23 01:02:38;;;;;;;14.32;8.55;;;;;;;;;;10495354;28;20892;-82
2023/11/23 01:07:40;;;;;;;15.15;8.55;;;;;;;;;;10497664;28;20900;-81
2023/11/23 01:12:44;;;;;;;12.27;8.23;;;;;;;;;;10498573;28;20414;-82
2023/11/23 01:17:46;;;;;;;11.80;7.82;;;;;;;;;;10496728;28;20550;-82
2023/11/23 01:22:49;;;;;;;12.48;7.70;;;;;;;;;;10496947;28;20414;-81
2023/11/23 01:27:52;;;;;;;12.80;8.05;;;;;;;;;;10498741;28;20411;-81
2023/11/23 01:32:56;;;;;;;11.75;7.05;;;;;;;;;;10505804;28;20442;-81
2023/11/23 01:37:58;;;;;;;12.80;7.70;;;;;;;;;;10498314;28;20492;-81
2023/11/23 01:43:07;;;;;;;11.63;7.67;;;;;;;;;;10493617;28;20953;-81
2023/11/23 01:48:10;;;;;;;13.57;7.32;;;;;;;;;;10498737;28;20478;-81
2023/11/23 01:53:13;;;;;;;11.60;7.20;;;;;;;;;;10493306;28;20465;-81
2023/11/23 01:58:19;;;;;;;13.47;7.03;;;;;;;;;;10494937;28;20551;-81
2023/11/23 02:03:23;;;;;;;10.65;6.80;;;;;;;;;;10492389;28;20813;-81
2023/11/23 02:08:25;;;;;;;12.07;7.43;;;;;;;;;;10495645;28;20520;-82
2023/11/23 02:13:31;;;;;;;11.57;6.63;;;;;;;;;;10490773;28;20406;-82
2023/11/23 02:18:37;;;;;;;10.10;6.63;;;;;;;;;;10495533;28;20557;-81
2023/11/23 02:23:39;;;;;;;9.32;6.35;;;;;;;;;;10487743;28;20504;-81
2023/11/23 02:28:43;;;;;;;10.05;6.43;;;;;;;;;;10494096;28;20759;-81
2023/11/23 02:33:46;;;;;;;9.50;6.05;;;;;;;;;;10493654;28;20414;-81
2023/11/23 02:38:48;;;;;;;10.40;6.07;;;;;;;;;;10489200;28;20420;-81
2023/11/23 02:43:52;;;;;;;9.57;6.10;;;;;;;;;;10493706;28;20437;-81
2023/11/23 02:48:54;;;;;;;10.75;6.18;;;;;;;;;;10502994;28;20928;-81
2023/11/23 02:53:56;;;;;;;9.90;6.30;;;;;;;;;;10492797;28;20437;-81
2023/11/23 02:59:00;;;;;;;9.37;6.30;;;;;;;;;;10493392;28;20933;-81
2023/11/23 03:04:04;;;;;;;10.45;6.38;;;;;;;;;;10493455;28;20450;-81
2023/11/23 03:09:06;;;;;;;9.60;5.78;;;;;;;;;;10493116;28;20480;-81
2023/11/23 03:14:10;;;;;;;8.90;5.50;;;;;;;;;;10494026;28;20460;-82
2023/11/23 03:19:13;;;;;;;9.15;5.88;;;;;;;;;;10495338;28;20484;-81
2023/11/23 03:24:16;;;;;;;9.35;6.00;;;;;;;;;;10491725;28;20402;-80
2023/11/23 03:29:20;;;;;;;8.43;5.50;;;;;;;;;;10489453;28;20444;-80
2023/11/23 03:34:22;;;;;;;8.10;5.10;;;;;;;;;;10493169;28;20445;-81
2023/11/23 03:39:24;;;;;;;6.87;5.10;;;;;;;;;;10495222;28;20518;-80
2023/11/23 03:44:29;;;;;;;7.05;5.03;;;;;;;;;;10489475;28;20895;-81
2023/11/23 03:49:31;;;;;;;8.68;5.47;;;;;;;;;;10490693;28;20473;-81
2023/11/23 03:54:33;;;;;;;7.90;5.25;;;;;;;;;;10493722;28;20463;-81
2023/11/23 03:59:37;;;;;;;8.20;5.13;;;;;;;;;;10493217;28;20459;-80
2023/11/23 04:04:39;;;;;;;10.55;5.70;;;;;;;;;;10490004;28;20410;-81
2023/11/23 04:09:42;;;;;;;9.10;4.90;;;;;;;;;;10498794;28;20401;-81
2023/11/23 04:14:45;;;;;;;8.33;5.30;;;;;;;;;;10506110;28;20476;-80
2023/11/23 04:19:48;;;;;;;8.30;5.43;;;;;;;;;;10501409;28;20540;-81
2023/11/23 04:24:50;;;;;;;8.83;5.77;;;;;;;;;;10504305;28;20605;-81
2023/11/23 04:29:54;;;;;;;7.90;5.40;;;;;;;;;;10500157;28;20549;-81
2023/11/23 04:34:57;;;;;;;7.38;5.70;;;;;;;;;;10500298;28;20407;-80
2023/11/23 04:39:59;;;;;;;7.85;5.45;;;;;;;;;;10501812;28;20454;-80
2023/11/23 04:45:03;;;;;;;8.60;5.15;;;;;;;;;;10498200;28;20415;-81
2023/11/23 04:50:06;;;;;;;7.88;5.43;;;;;;;;;;10498591;28;20433;-81
2023/11/23 04:55:09;;;;;;;7.50;4.93;;;;;;;;;;10498479;28;20954;-81
2023/11/23 05:00:14;;;;;;;7.13;4.97;;;;;;;;;;10498150;28;20505;-81
2023/11/23 05:05:17;;;;;;;8.23;5.60;;;;;;;;;;10493216;28;20430;-80
2023/11/23 05:10:20;;;;;;;8.20;5.47;;;;;;;;;;10501009;28;20436;-80
2023/11/23 05:15:24;;;;;;;7.93;5.43;;;;;;;;;;10480476;28;20894;-81
2023/11/23 05:20:26;;;;;;;11.52;6.47;;;;;;;;;;10501142;28;20453;-82
2023/11/23 05:25:28;;;;;;;9.37;5.73;;;;;;;;;;10496812;28;20747;-82
2023/11/23 05:30:32;;;;;;;11.27;6.32;;;;;;;;;;10492178;28;20450;-82
2023/11/23 05:35:35;;;;;;;10.40;6.05;;;;;;;;;;10493617;28;20496;-80
2023/11/23 05:40:37;;;;;;;9.02;6.00;;;;;;;;;;10498539;28;20464;-82
2023/11/23 05:45:41;;;;;;;8.87;6.00;;;;;;;;;;10495277;28;20413;-81
2023/11/23 05:50:44;;;;;;;10.30;6.00;;;;;;;;;;10494507;28;20454;-81
2023/11/23 05:55:46;;;;;;;11.50;5.97;;;;;;;;;;10492772;28;20403;-81
2023/11/23 06:00:50;;;;;;;11.02;6.07;;;;;;;;;;10496487;28;20485;-81
2023/11/23 06:05:52;;;;;;;13.10;6.00;;;;;;;;;;10494281;28;20402;-81
2023/11/23 06:10:55;;;;;;;9.45;6.22;;;;;;;;;;10490387;28;21125;-81
2023/11/23 06:15:58;;;;;;;9.35;5.60;;;;;;;;;;10495901;28;20933;-82
2023/11/23 06:21:01;;;;;;;9.37;5.43;;;;;;;;;;10488680;28;20551;-80
2023/11/23 06:26:03;;;;;;;10.50;5.80;;;;;;;;;;10495062;28;20408;-81
2023/11/23 06:31:07;;;;;;;11.10;5.75;;;;;;;;;;10493075;28;20893;-80
2023/11/23 06:36:10;;;;;;;13.57;6.60;;;;;;;;;;10494970;28;20484;-82
2023/11/23 06:41:19;;;;;;;9.10;6.33;;;;;;;;;;10490443;28;21082;-81
2023/11/23 06:46:23;;;;;;;11.20;5.97;;;;;;;;;;10487803;28;20510;-80
2023/11/23 06:51:25;;;;;;;11.15;6.43;;;;;;;;;;10490777;28;20532;-80
2023/11/23 06:56:28;;;;;;;9.18;6.53;;;;;;;;;;10486415;28;20511;-80
2023/11/23 07:01:31;;;;;;;18.87;7.23;;;;;;;;;;10490438;28;20515;-81
2023/11/23 07:06:34;;;;;;;13.50;7.30;;;;;;;;;;10494459;28;20483;-81
2023/11/23 07:11:38;;;;;;;13.43;6.90;;;;;;;;;;10486546;28;20492;-81
2023/11/23 07:16:42;;;;;;;12.27;6.72;;;;;;;;;;10489190;28;20442;-82
2023/11/23 07:21:44;;;;;;;19.35;8.90;;;;;;;;;;10487843;28;20497;-81
2023/11/23 07:26:47;;;;;;;21.30;10.82;;;;;;;;;;10494775;28;20766;-82
2023/11/23 07:31:51;;;;;;;21.60;9.52;;;;;;;;;;10491234;28;20431;-82
2023/11/23 07:36:53;;;;;;;13.30;7.47;;;;;;;;;;10492366;28;20513;-82
2023/11/23 07:41:56;;;;;;;16.58;8.02;;;;;;;;;;10500073;28;20454;-81
2023/11/23 07:46:59;;;;;;;13.63;7.63;;;;;;;;;;10503319;28;20488;-82
2023/11/23 07:52:02;;;;;;;14.35;7.85;;;;;;;;;;10506063;28;20467;-81
2023/11/23 07:57:04;;;;;;;17.83;7.77;;;;;;;;;;10504179;28;20572;-81
2023/11/23 08:02:09;;;;;;;14.60;8.15;;;;;;;;;;10509726;28;20498;-81
2023/11/23 08:07:11;;;;;;;12.63;7.75;;;;;;;;;;10506546;28;20445;-81
2023/11/23 08:12:14;;;;;;;13.97;7.97;;;;;;;;;;10503134;28;21025;-81
2023/11/23 08:17:17;;;;;;;11.13;6.53;;;;;;;;;;10503614;28;20462;-81
2023/11/23 08:22:21;;;;;;;12.83;6.77;;;;;;;;;;10502639;28;20491;-81
2023/11/23 08:27:24;;;;;;;11.65;6.95;;;;;;;;;;10500260;28;20476;-81
2023/11/23 08:32:27;;;;;;;8.97;5.30;;;;;;;;;;10506916;28;20438;-81
2023/11/23 08:37:30;;;;;;;10.15;5.40;;;;;;;;;;10513628;28;20430;-81
2023/11/23 08:42:33;;;;;;;10.68;5.70;;;;;;;;;;10509334;28;20489;-81
2023/11/23 08:47:37;;;;;;;11.25;5.50;;;;;;;;;;10503129;28;20458;-82
2023/11/23 08:52:39;;;;;;;9.07;5.88;;;;;;;;;;10504887;28;20441;-81
2023/11/23 08:57:41;;;;;;;8.67;5.20;;;;;;;;;;10510971;28;20503;-82
2023/11/23 09:02:45;;;;;;;9.90;5.67;;;;;;;;;;10492281;28;20453;-81
2023/11/23 09:07:48;;;;;;;9.73;5.53;;;;;;;;;;10507466;28;20432;-81
2023/11/23 09:12:51;;;;;;;9.73;5.53;;;;;;;;;;10506037;28;21177;-81
2023/11/23 09:17:55;;;;;;;7.75;5.22;;;;;;;;;;10524587;23;20422;-82
2023/11/23 09:22:57;;;;;;;8.50;5.43;;;;;;;;;;10503825;28;20481;-82
2023/11/23 09:28:00;;;;;;;7.70;5.40;;;;;;;;;;10504226;28;20469;-82
2023/11/23 09:33:09;;;;;;;8.30;5.07;;;;;;;;;;10504628;28;20421;-82
2023/11/23 09:38:11;;;;;;;14.10;5.67;;;;;;;;;;10504882;28;20500;-82
2023/11/23 09:43:15;;;;;;;10.30;5.40;;;;;;;;;;10523230;28;20445;-83
2023/11/23 09:48:20;;;;;;;9.80;5.83;;;;;;;;;;10510994;28;20412;-85
2023/11/23 09:53:24;;;;;;;10.17;5.90;;;;;;;;;;10521150;28;20404;-85
2023/11/23 09:58:27;;;;;;;7.47;5.75;;;;;;;;;;10519739;28;20397;-86
2023/11/23 10:03:33;;;;;;;8.00;5.30;;;;;;;;;;10513986;28;20947;-86
2023/11/23 10:08:37;;;;;;;7.88;4.78;;;;;;;;;;10516915;28;21024;-86
2023/11/23 10:13:39;;;;;;;7.65;3.80;;;;;;;;;;10508599;28;20475;-84
2023/11/23 10:18:43;;;;;;;9.20;4.50;;;;;;;;;;10457201;28;20411;-86
2023/11/23 10:23:46;;;;;;;8.63;5.78;;;;;;;;;;10469226;28;20499;-86
2023/11/23 10:28:49;;;;;;;7.43;4.88;;;;;;;;;;10476652;28;20394;-86
2023/11/23 10:33:53;;;;;;;6.83;5.20;;;;;;;;;;10464285;28;20768;-86
2023/11/23 10:38:56;;;;;;;5.70;3.90;;;;;;;;;;10470918;28;20452;-86
2023/11/23 10:44:03;;;;;;;6.77;4.40;;;;;;;;;;10477731;28;20433;-86
2023/11/23 10:49:08;;;;;;;8.10;4.40;;;;;;;;;;10474944;28;20935;-86
2023/11/23 10:54:10;;;;;;;5.87;3.90;;;;;;;;;;10461259;28;20417;-84
2023/11/23 10:59:20;;;;;;;7.50;5.77;;;;;;;;;;10449615;28;20404;-84
2023/11/23 11:04:24;;;;;;;6.07;4.05;;;;;;;;;;10458629;28;20403;-83
2023/11/23 11:09:27;;;;;;;4.37;3.47;;;;;;;;;;10455420;28;20462;-84
2023/11/23 11:14:34;;;;;;;6.40;4.43;;;;;;;;;;10468191;28;20426;-84
2023/11/23 11:19:47;;;;;;;5.20;4.00;;;;;;;;;;10514429;28;20449;-83
2023/11/23 11:24:58;;;;;;;7.28;4.28;;;;;;;;;;10507224;28;20410;-85
2023/11/23 11:30:01;;;;;;;5.57;3.97;;;;;;;;;;10519859;28;20409;-83
2023/11/23 11:35:08;;;;;;;4.82;3.65;;;;;;;;;;10514702;28;20401;-84
2023/11/23 11:40:13;;;;;;;4.75;3.45;;;;;;;;;;10513393;28;20493;-84
2023/11/23 11:45:17;;;;;;;6.30;3.95;;;;;;;;;;10511793;28;20540;-83
2023/11/23 11:50:21;;;;;;;4.40;3.53;;;;;;;;;;10508271;28;20400;-84
2023/11/23 11:55:24;;;;;;;5.82;3.55;;;;;;;;;;10514341;28;20403;-84
2023/11/23 12:00:27;;;;;;;5.25;3.67;;;;;;;;;;10506572;28;20475;-84
2023/11/23 12:05:30;;;;;;;4.53;3.80;;;;;;;;;;10515101;28;20886;-84
2023/11/23 12:10:39;;;;;;;8.13;5.35;;;;;;;;;;10506356;28;20452;-85
2023/11/23 12:15:43;;;;;;;7.88;4.28;;;;;;;;;;10523090;28;20905;-83
2023/11/23 12:20:47;;;;;;;6.43;4.30;;;;;;;;;;10514954;28;21238;-83
2023/11/23 12:25:51;;;;;;;15.35;7.22;;;;;;;;;;10517429;28;20891;-84
2023/11/23 12:30:53;;;;;;;10.43;6.43;;;;;;;;;;10512179;28;20430;-84
2023/11/23 12:35:58;;;;;;;7.03;4.43;;;;;;;;;;10504068;28;20943;-84
2023/11/23 12:41:00;;;;;;;10.15;5.18;;;;;;;;;;10509404;28;20424;-84
2023/11/23 12:46:03;;;;;;;7.05;4.80;;;;;;;;;;10526757;28;20465;-84
2023/11/23 12:51:07;;;;;;;23.23;10.35;;;;;;;;;;10512109;28;20421;-83
2023/11/23 12:56:10;;;;;;;24.10;11.75;;;;;;;;;;10509904;28;20406;-84
2023/11/23 13:01:12;;;;;;;10.13;5.37;;;;;;;;;;10514057;28;20509;-84
2023/11/23 13:06:16;;;;;;;7.95;5.35;;;;;;;;;;10507228;28;20472;-82
2023/11/23 13:11:19;;;;;;;10.07;5.97;;;;;;;;;;10502937;28;20471;-84
2023/11/23 13:16:23;;;;;;;8.02;5.45;;;;;;;;;;10511102;28;20404;-84
2023/11/23 13:21:27;;;;;;;6.43;4.30;;;;;;;;;;10516156;28;20478;-85
2023/11/23 13:26:32;;;;;;;6.73;4.50;;;;;;;;;;10517675;28;20440;-84
2023/11/23 13:31:35;;;;;;;6.53;4.50;;;;;;;;;;10504647;28;20406;-84
2023/11/23 13:36:39;;;;;;;6.68;4.97;;;;;;;;;;10502113;28;20432;-84
2023/11/23 13:41:41;;;;;;;7.90;5.23;;;;;;;;;;10510326;28;20509;-84
2023/11/23 13:46:44;;;;;;;15.00;10.30;;;;;;;;;;10506721;28;20897;-84
2023/11/23 13:51:48;;;;;;;7.53;5.03;;;;;;;;;;10509778;28;20414;-84
2023/11/23 13:56:51;;;;;;;6.38;4.63;;;;;;;;;;10519965;28;20443;-85
2023/11/23 14:01:54;;;;;;;7.10;4.70;;;;;;;;;;10511193;28;20452;-83
2023/11/23 14:06:58;;;;;;;5.47;4.27;;;;;;;;;;10505905;28;20483;-84
2023/11/23 14:12:03;;;;;;;13.07;8.95;;;;;;;;;;10519766;28;20533;-84
2023/11/23 14:17:08;;;;;;;10.20;6.32;;;;;;;;;;10502150;28;20393;-84
2023/11/23 14:22:16;;;;;;;6.82;5.30;;;;;;;;;;10508792;28;20419;-84
2023/11/23 14:27:19;;;;;;;7.53;5.80;;;;;;;;;;10514082;28;20447;-84
2023/11/23 14:32:22;;;;;;;10.73;7.60;;;;;;;;;;10519684;28;20420;-84
2023/11/23 14:37:26;;;;;;;9.13;5.90;;;;;;;;;;10507199;28;20389;-84
2023/11/23 14:42:29;;;;;;;10.07;5.30;;;;;;;;;;10508123;28;20575;-82
2023/11/23 14:47:31;;;;;;;7.78;5.05;;;;;;;;;;10501536;28;20410;-83
2023/11/23 14:52:36;;;;;;;7.55;5.07;;;;;;;;;;10500257;28;20398;-83
2023/11/23 14:57:38;;;;;;;9.45;5.47;;;;;;;;;;10501944;28;20422;-82
2023/11/23 15:02:41;;;;;;;12.02;6.68;;;;;;;;;;10511469;28;20420;-84
2023/11/23 15:07:45;;;;;;;18.33;7.67;;;;;;;;;;10518662;28;20451;-83
2023/11/23 15:12:51;;;;;;;15.07;7.63;;;;;;;;;;10510677;28;20483;-83
2023/11/23 15:17:54;;;;;;;12.55;8.27;;;;;;;;;;10502227;28;20403;-81
2023/11/23 15:23:00;;;;;;;15.25;7.28;;;;;;;;;;10513735;28;20460;-87
2023/11/23 15:28:06;;;;;;;12.60;7.47;;;;;;;;;;10508850;28;20410;-88
2023/11/23 15:33:16;;;;;;;12.10;7.15;;;;;;;;;;10512938;28;20460;-88
2023/11/23 15:38:19;;;;;;;14.80;6.70;;;;;;;;;;10500871;28;20414;-88
2023/11/23 15:43:23;;;;;;;18.38;7.75;;;;;;;;;;10508975;28;20449;-87
2023/11/23 15:48:26;;;;;;;14.20;6.87;;;;;;;;;;10514798;28;20397;-88
2023/11/23 15:53:29;;;;;;;14.75;8.13;;;;;;;;;;10521030;28;20404;-88
2023/11/23 15:58:32;;;;;;;23.50;8.05;;;;;;;;;;10517148;28;20763;-89
2023/11/23 16:03:34;;;;;;;30.67;9.77;;;;;;;;;;10511669;28;20416;-87
2023/11/23 16:08:38;;;;;;;18.83;8.60;;;;;;;;;;10555263;28;20971;-88
2023/11/23 16:13:42;;;;;;;28.15;10.50;;;;;;;;;;10512460;28;20537;-88
2023/11/23 16:18:44;;;;;;;17.33;8.77;;;;;;;;;;10534058;28;20746;-85
2023/11/23 16:23:49;;;;;;;18.55;7.97;;;;;;;;;;10536546;28;20487;-85
2023/11/23 16:28:52;;;;;;;95.10;32.10;;;;;;;;;;10522947;28;20880;-85
2023/11/23 16:33:56;;;;;;;63.13;22.10;;;;;;;;;;10523781;28;20519;-86
2023/11/23 16:39:00;;;;;;;77.47;29.50;;;;;;;;;;10517948;28;21170;-85
2023/11/23 16:44:03;;;;;;;59.42;22.55;;;;;;;;;;10516387;28;20444;-84
2023/11/23 16:49:05;;;;;;;43.78;17.23;;;;;;;;;;10505290;28;20419;-85
2023/11/23 16:54:09;;;;;;;60.03;25.48;;;;;;;;;;10498800;28;20441;-85
2023/11/23 16:59:12;;;;;;;116.70;41.95;;;;;;;;;;10522981;28;20501;-85
2023/11/23 17:04:17;;;;;;;67.32;28.08;;;;;;;;;;10512640;28;20488;-84
2023/11/23 17:09:21;;;;;;;25.77;12.60;;;;;;;;;;10517064;28;20513;-80
2023/11/23 17:14:23;;;;;;;33.33;15.57;;;;;;;;;;10502670;28;20909;-88
2023/11/23 17:19:26;;;;;;;53.22;24.48;;;;;;;;;;10505997;28;20443;-88
2023/11/23 17:24:30;;;;;;;41.33;21.17;;;;;;;;;;10511406;28;20416;-88
2023/11/23 17:29:32;;;;;;;44.60;22.65;;;;;;;;;;10509404;28;20413;-88
2023/11/23 17:34:35;;;;;;;39.90;19.42;;;;;;;;;;10498948;28;20907;-88
2023/11/23 17:39:40;;;;;;;39.30;21.45;;;;;;;;;;10495393;28;20968;-78
2023/11/23 17:44:42;;;;;;;33.28;17.73;;;;;;;;;;10493509;28;20444;-84
2023/11/23 17:49:45;;;;;;;33.53;17.85;;;;;;;;;;10502973;28;20436;-83
2023/11/23 17:54:49;;;;;;;27.93;16.00;;;;;;;;;;10493809;28;20517;-85
2023/11/23 17:59:52;;;;;;;27.02;14.60;;;;;;;;;;10496669;28;20500;-85
2023/11/23 18:04:56;;;;;;;25.88;15.07;;;;;;;;;;10497165;28;20568;-83
2023/11/23 18:10:00;;;;;;;23.90;15.23;;;;;;;;;;10482960;28;20448;-84
2023/11/23 18:15:07;;;;;;;25.85;14.90;;;;;;;;;;10493650;28;20437;-87
2023/11/23 18:20:13;;;;;;;33.90;15.63;;;;;;;;;;10495929;28;20422;-88
2023/11/23 18:25:17;;;;;;;38.65;20.55;;;;;;;;;;10504314;28;20461;-85
2023/11/23 18:30:20;;;;;;;33.35;19.38;;;;;;;;;;10483827;28;20509;-87
2023/11/23 18:35:23;;;;;;;31.38;17.83;;;;;;;;;;10504417;28;20435;-87
2023/11/23 18:40:27;;;;;;;35.30;19.73;;;;;;;;;;10474633;28;20544;-87
2023/11/23 18:45:31;;;;;;;36.55;22.20;;;;;;;;;;10505077;28;20444;-88
2023/11/23 18:50:33;;;;;;;36.65;20.67;;;;;;;;;;10488242;28;20443;-87
2023/11/23 18:55:37;;;;;;;38.08;20.88;;;;;;;;;;10491119;28;20447;-88
2023/11/23 19:00:39;;;;;;;39.83;21.37;;;;;;;;;;10483294;28;20445;-87
2023/11/23 19:05:42;;;;;;;37.42;22.05;;;;;;;;;;10494654;28;20505;-87
2023/11/23 19:10:45;;;;;;;37.70;21.30;;;;;;;;;;10482560;28;20453;-87
2023/11/23 19:15:48;;;;;;;39.33;21.70;;;;;;;;;;10494990;28;20444;-87
2023/11/23 19:20:52;;;;;;;57.23;28.63;;;;;;;;;;10482654;28;20499;-87
2023/11/23 19:25:57;;;;;;;54.63;31.75;;;;;;;;;;10498401;28;20493;-84
2023/11/23 19:31:01;;;;;;;49.55;27.83;;;;;;;;;;10474532;28;20509;-85
2023/11/23 19:36:05;;;;;;;40.90;25.08;;;;;;;;;;10478783;28;21672;-84
2023/11/23 19:41:11;;;;;;;47.83;25.40;;;;;;;;;;10504500;28;20526;-85
2023/11/23 19:46:16;;;;;;;43.33;26.70;;;;;;;;;;10493214;28;20544;-84
2023/11/23 19:51:23;;;;;;;47.33;26.02;;;;;;;;;;10472322;28;20442;-84
2023/11/23 19:56:27;;;;;;;57.70;28.58;;;;;;;;;;10478623;28;21034;-84
2023/11/23 20:01:29;;;;;;;44.10;25.25;;;;;;;;;;10484011;28;21202;-85
2023/11/23 20:06:32;;;;;;;44.45;25.38;;;;;;;;;;10507535;28;20478;-84
2023/11/23 20:11:36;;;;;;;41.33;25.50;;;;;;;;;;10479068;28;20451;-85
2023/11/23 20:16:39;;;;;;;45.55;25.85;;;;;;;;;;10490830;28;20432;-84
2023/11/23 20:21:41;;;;;;;44.95;26.67;;;;;;;;;;10491873;28;20440;-86
2023/11/23 20:26:45;;;;;;;48.17;28.50;;;;;;;;;;10512334;28;20499;-85
2023/11/23 20:31:49;;;;;;;46.03;27.20;;;;;;;;;;10478615;28;20566;-88
2023/11/23 20:36:52;;;;;;;43.67;24.43;;;;;;;;;;10485472;28;20530;-87
2023/11/23 20:41:56;;;;;;;51.63;30.70;;;;;;;;;;10491051;28;20478;-87
2023/11/23 20:46:58;;;;;;;47.50;28.67;;;;;;;;;;10511589;28;20514;-87
2023/11/23 20:52:00;;;;;;;44.17;27.73;;;;;;;;;;10485927;28;20774;-88
2023/11/23 20:57:05;;;;;;;51.37;30.00;;;;;;;;;;10497378;28;20416;-90
2023/11/23 21:02:09;;;;;;;51.40;30.20;;;;;;;;;;10493720;28;20505;-87
2023/11/23 21:07:13;;;;;;;68.50;34.43;;;;;;;;;;10488777;28;20493;-87
2023/11/23 21:12:16;;;;;;;54.50;30.57;;;;;;;;;;10487865;28;20620;-88
2023/11/23 21:17:19;;;;;;;51.15;30.08;;;;;;;;;;10513609;28;20460;-87
2023/11/23 21:22:22;;;;;;;43.47;27.17;;;;;;;;;;10506170;28;20406;-87
2023/11/23 21:27:36;;;;;;;45.43;26.93;;;;;;;;;;10503884;28;20515;-87
2023/11/23 21:32:39;;;;;;;41.80;26.37;;;;;;;;;;10507289;28;20420;-88
2023/11/23 21:37:42;;;;;;;39.20;24.55;;;;;;;;;;10496910;28;20444;-88
2023/11/23 21:42:45;;;;;;;45.03;25.77;;;;;;;;;;10506123;28;20443;-87
2023/11/23 21:47:48;;;;;;;44.08;25.55;;;;;;;;;;10508955;28;20412;-88
2023/11/23 21:52:50;;;;;;;44.90;28.87;;;;;;;;;;10522486;28;20416;-88
2023/11/23 21:57:54;;;;;;;42.22;25.80;;;;;;;;;;10520937;28;20413;-88
2023/11/23 22:02:56;;;;;;;44.67;25.87;;;;;;;;;;10507055;28;20454;-87
2023/11/23 22:07:59;;;;;;;44.90;27.92;;;;;;;;;;10525694;23;20423;-88
2023/11/23 22:13:03;;;;;;;41.53;26.60;;;;;;;;;;10426913;28;20438;-88
2023/11/23 22:18:06;;;;;;;48.53;27.63;;;;;;;;;;10420669;28;20407;-88
2023/11/23 22:23:10;;;;;;;46.33;27.52;;;;;;;;;;10438338;28;20469;-87
2023/11/23 22:28:16;;;;;;;44.78;26.73;;;;;;;;;;10431775;28;20459;-88
2023/11/23 22:33:20;;;;;;;44.42;27.00;;;;;;;;;;10431329;28;20420;-88
2023/11/23 22:38:24;;;;;;;46.92;26.35;;;;;;;;;;10426302;28;20470;-88
2023/11/23 22:43:28;;;;;;;44.22;25.10;;;;;;;;;;10421977;28;20463;-88
2023/11/23 22:48:31;;;;;;;40.42;25.95;;;;;;;;;;10430761;28;20471;-86
2023/11/23 22:53:34;;;;;;;37.63;22.85;;;;;;;;;;10426318;28;20483;-85
2023/11/23 22:58:39;;;;;;;37.53;22.88;;;;;;;;;;10408464;28;20911;-83
2023/11/23 23:03:44;;;;;;;36.27;22.10;;;;;;;;;;10428930;28;20993;-84
2023/11/23 23:08:46;;;;;;;36.17;21.42;;;;;;;;;;10434011;28;20460;-84
2023/11/23 23:13:50;;;;;;;35.03;20.98;;;;;;;;;;10411280;28;20876;-84
2023/11/23 23:18:53;;;;;;;38.08;21.90;;;;;;;;;;10409036;28;20441;-84
2023/11/23 23:23:55;;;;;;;36.67;21.75;;;;;;;;;;10398165;28;20686;-84
2023/11/23 23:29:01;;;;;;;37.65;21.90;;;;;;;;;;10426072;28;20443;-83
2023/11/23 23:34:03;;;;;;;35.00;20.92;;;;;;;;;;10419623;28;20533;-82
2023/11/23 23:39:07;;;;;;;34.83;20.23;;;;;;;;;;10388842;28;20551;-83
2023/11/23 23:44:11;;;;;;;35.33;20.48;;;;;;;;;;10428375;28;20553;-83
2023/11/23 23:49:13;;;;;;;34.08;19.88;;;;;;;;;;10443972;28;20456;-83
2023/11/23 23:54:16;;;;;;;32.42;20.20;;;;;;;;;;10420636;28;20958;-83
2023/11/23 23:59:21;;;;;;;31.60;19.10;;;;;;;;;;10392738;28;20938;-83
